Terminal Aerodrome Forecast
Issued by NWS

Home | Current Version | Previous Version | Text Only | Print | Product List | Glossary On
Versions: 1 2 3 4 5 6 7 8 9 10 11 12
917
FTUS44 KEPZ 241138
TAFLRU
TAF
KLRU 241138Z 2412/2512 26008KT P6SM SKC
     FM241500 24017G25KT P6SM SKC
     FM250300 26011KT P6SM SKC=

USA.gov is the U.S. government's official web portal to all federal, state and local government web resources and services.